createdAt,value
2019-04-21T00:02:05.913Z,16.67
2019-04-21T00:04:48.428Z,15.55
2019-04-21T00:07:29.684Z,13.90
2019-04-21T00:10:04.027Z,14.47
2019-04-21T00:12:22.844Z,15.03
2019-04-21T00:14:51.307Z,15.78
2019-04-21T00:17:13.202Z,15.50
2019-04-21T00:19:41.254Z,14.30
2019-04-21T00:22:23.498Z,15.90
2019-04-21T00:24:54.361Z,15.65
2019-04-21T00:27:28.592Z,14.70
2019-04-21T00:29:58.499Z,15.40
2019-04-21T00:32:25.721Z,16.65
2019-04-21T00:34:50.984Z,14.53
2019-04-21T00:37:24.070Z,15.25
2019-04-21T00:40:05.764Z,14.45
2019-04-21T00:42:34.298Z,14.93
2019-04-21T00:44:58.671Z,14.73
2019-04-21T00:47:36.957Z,15.88
2019-04-21T00:50:05.327Z,15.78
2019-04-21T00:52:51.468Z,14.98
2019-04-21T00:58:03.736Z,15.15
2019-04-21T01:00:30.471Z,15.38
2019-04-21T01:03:00.920Z,14.43
2019-04-21T01:05:37.545Z,15.00
2019-04-21T01:07:57.921Z,14.28
2019-04-21T01:10:24.544Z,14.45
2019-04-21T01:13:13.933Z,15.53
2019-04-21T01:15:54.622Z,15.50
2019-04-21T01:18:04.849Z,15.00
2019-04-21T01:20:17.620Z,15.20
2019-04-21T01:22:45.623Z,15.38
2019-04-21T01:25:22.692Z,15.93
2019-04-21T01:27:59.401Z,15.68
2019-04-21T01:30:34.519Z,15.80
2019-04-21T01:33:07.646Z,14.35
2019-04-21T01:35:40.190Z,15.48
2019-04-21T01:40:41.001Z,17.77
2019-04-21T01:43:07.653Z,15.93
2019-04-21T01:45:40.043Z,17.87
2019-04-21T01:48:06.587Z,17.45
2019-04-21T01:50:34.437Z,17.10
2019-04-21T01:53:34.820Z,17.07
2019-04-21T01:55:57.166Z,19.30
2019-04-21T01:58:28.828Z,17.80
2019-04-21T02:01:05.743Z,18.35
2019-04-21T02:08:56.350Z,18.00
2019-04-21T02:11:31.353Z,20.15
2019-04-21T02:14:05.494Z,19.00
2019-04-21T02:16:28.221Z,19.27
2019-04-21T02:18:56.776Z,18.20
2019-04-21T02:21:21.677Z,19.50
2019-04-21T02:24:04.712Z,20.00
2019-04-21T02:26:37.510Z,19.23
2019-04-21T02:29:10.155Z,19.40
2019-04-21T02:34:27.404Z,20.40
2019-04-21T02:36:52.940Z,21.65
2019-04-21T02:39:19.219Z,23.20
2019-04-21T02:42:09.691Z,22.20
2019-04-21T02:44:37.504Z,22.93
2019-04-21T02:47:19.104Z,22.95
2019-04-21T02:49:45.290Z,21.90
2019-04-21T02:52:02.137Z,24.63
2019-04-21T02:59:49.918Z,23.95
2019-04-21T03:02:40.821Z,24.65
2019-04-21T03:05:13.578Z,23.05
2019-04-21T03:07:50.289Z,22.93
2019-04-21T03:10:26.267Z,24.35
2019-04-21T03:12:44.151Z,23.83
2019-04-21T03:15:23.396Z,24.67
2019-04-21T03:17:56.856Z,24.52
2019-04-21T03:20:30.879Z,23.47
2019-04-21T03:22:58.164Z,25.27
2019-04-21T03:30:45.064Z,25.57
2019-04-21T03:33:24.301Z,24.92
2019-04-21T03:37:56.468Z,24.63
2019-04-21T03:40:18.658Z,25.25
2019-04-21T03:42:59.842Z,24.57
2019-04-21T03:45:31.096Z,25.43
2019-04-21T03:47:55.167Z,24.67
2019-04-21T03:50:27.693Z,25.20
2019-04-21T03:53:06.829Z,25.20
2019-04-21T04:00:49.810Z,25.72
2019-04-21T04:03:42.122Z,24.50
2019-04-21T04:06:03.783Z,25.57
2019-04-21T04:08:53.466Z,23.77
2019-04-21T04:11:24.850Z,23.20
2019-04-21T04:14:04.261Z,24.98
2019-04-21T04:18:52.788Z,25.35
2019-04-21T04:21:24.687Z,24.00
2019-04-21T04:24:01.829Z,24.52
2019-04-21T04:26:26.030Z,29.10
2019-04-21T04:28:56.304Z,25.05
2019-04-21T04:31:25.385Z,26.23
2019-04-21T04:36:30.309Z,31.62
2019-04-21T04:39:06.812Z,32.10
2019-04-21T04:41:35.151Z,33.18
2019-04-21T04:44:07.003Z,32.63
2019-04-21T04:46:28.752Z,35.23
2019-04-21T04:49:08.040Z,37.73
2019-04-21T04:56:36.280Z,36.08
2019-04-21T04:59:27.286Z,35.28
2019-04-21T05:01:34.940Z,35.73
2019-04-21T05:04:15.866Z,33.50
2019-04-21T05:09:15.475Z,33.60
2019-04-21T05:16:43.147Z,32.05
2019-04-21T05:19:10.041Z,32.60
2019-04-21T05:23:51.161Z,27.17
2019-04-21T05:26:14.464Z,27.82
2019-04-21T05:28:47.429Z,27.25
2019-04-21T05:31:34.619Z,26.25
2019-04-21T05:34:03.088Z,26.70
2019-04-21T05:36:52.334Z,29.57
2019-04-21T05:39:18.784Z,28.00
2019-04-21T05:41:41.821Z,26.30
2019-04-21T05:44:30.392Z,27.75
2019-04-21T05:47:09.393Z,25.92
2019-04-21T05:49:38.707Z,26.00
2019-04-21T05:52:13.213Z,24.80
2019-04-21T05:54:50.196Z,24.60
2019-04-21T05:57:11.551Z,29.63
2019-04-21T05:59:47.289Z,31.82
2019-04-21T06:12:35.947Z,22.27
2019-04-21T06:15:19.695Z,23.07
2019-04-21T06:17:35.160Z,23.00
2019-04-21T06:20:10.558Z,22.25
2019-04-21T06:22:36.320Z,24.23
2019-04-21T06:25:31.575Z,22.20
2019-04-21T06:27:45.830Z,31.65
2019-04-21T06:30:12.034Z,29.87
2019-04-21T06:32:49.276Z,21.52
2019-04-21T06:35:24.053Z,23.22
2019-04-21T06:40:23.076Z,20.90
2019-04-21T06:42:53.921Z,21.68
2019-04-21T06:45:18.576Z,22.17
2019-04-21T06:47:53.478Z,20.45
2019-04-21T06:50:22.851Z,21.15
2019-04-21T06:55:20.325Z,18.92
2019-04-21T06:57:54.317Z,19.50
2019-04-21T07:00:18.453Z,19.73
2019-04-21T07:03:17.139Z,20.02
2019-04-21T07:08:08.836Z,17.77
2019-04-21T07:10:26.252Z,27.32
2019-04-21T07:12:51.598Z,30.88
2019-04-21T07:15:27.839Z,18.90
2019-04-21T07:18:00.124Z,18.87
2019-04-21T07:20:21.544Z,19.70
2019-04-21T07:22:54.797Z,18.12
2019-04-21T07:25:28.289Z,18.55
2019-04-21T07:27:58.000Z,17.55
2019-04-21T07:30:43.964Z,17.85
2019-04-21T07:35:31.862Z,19.52
2019-04-21T07:38:01.278Z,18.57
2019-04-21T07:40:30.472Z,17.48
2019-04-21T07:42:58.817Z,17.27
2019-04-21T07:45:26.209Z,17.67
2019-04-21T07:48:17.226Z,17.23
2019-04-21T07:51:04.362Z,17.32
2019-04-21T07:53:34.617Z,16.97
2019-04-21T07:55:45.924Z,16.10
2019-04-21T07:58:35.670Z,16.15
2019-04-21T08:01:04.424Z,14.63
2019-04-21T08:03:35.221Z,16.27
2019-04-21T08:06:03.680Z,15.88
2019-04-21T08:08:36.763Z,15.05
2019-04-21T08:11:06.289Z,15.45
2019-04-21T08:13:40.065Z,15.90
2019-04-21T08:18:39.494Z,15.60
2019-04-21T08:21:05.894Z,14.43
2019-04-21T08:23:37.127Z,14.78
2019-04-21T08:28:44.071Z,14.78
2019-04-21T08:31:08.188Z,14.40
2019-04-21T08:36:21.570Z,15.00
2019-04-21T08:38:45.990Z,14.57
2019-04-21T08:46:13.454Z,14.65
2019-04-21T08:48:42.323Z,15.20
2019-04-21T08:53:47.669Z,14.53
2019-04-21T08:56:21.405Z,15.13
2019-04-21T08:59:15.186Z,13.90
2019-04-21T09:01:43.256Z,15.60
2019-04-21T09:04:13.287Z,13.83
2019-04-21T09:07:04.934Z,13.75
2019-04-21T09:11:42.324Z,14.03
2019-04-21T09:14:13.945Z,14.58
2019-04-21T09:16:41.251Z,13.43
2019-04-21T09:19:22.498Z,12.98
2019-04-21T09:21:49.932Z,12.87
2019-04-21T09:24:23.398Z,12.50
2019-04-21T09:26:46.027Z,12.37
2019-04-21T09:29:13.103Z,12.03
2019-04-21T09:31:38.026Z,12.60
2019-04-21T09:34:06.404Z,12.82
2019-04-21T09:36:38.955Z,12.10
2019-04-21T09:39:14.139Z,15.85
2019-04-21T09:41:39.397Z,15.03
2019-04-21T09:44:15.074Z,13.65
2019-04-21T09:46:45.329Z,13.38
2019-04-21T09:49:13.526Z,12.13
2019-04-21T09:51:39.675Z,11.33
2019-04-21T09:54:14.503Z,12.25
2019-04-21T09:56:47.332Z,11.38
2019-04-21T09:59:19.318Z,12.20
2019-04-21T10:01:54.973Z,11.68
2019-04-21T10:04:10.432Z,12.03
2019-04-21T10:06:40.626Z,11.60
2019-04-21T10:09:14.150Z,11.33
2019-04-21T10:11:39.874Z,13.20
2019-04-21T10:14:09.795Z,12.55
2019-04-21T10:16:42.897Z,12.85
2019-04-21T10:19:11.595Z,13.80
2019-04-21T10:21:40.297Z,13.50
2019-04-21T10:24:08.874Z,12.28
2019-04-21T10:26:37.650Z,11.83
2019-04-21T10:29:13.370Z,12.70
2019-04-21T10:31:36.766Z,11.55
2019-04-21T10:34:05.581Z,14.73
2019-04-21T10:36:35.034Z,11.40
2019-04-21T10:39:05.932Z,11.93
2019-04-21T10:41:35.137Z,11.93
2019-04-21T10:44:05.082Z,10.93
2019-04-21T10:46:34.883Z,10.68
2019-04-21T10:49:04.441Z,10.35
2019-04-21T10:51:34.995Z,10.65
2019-04-21T10:54:04.065Z,11.38
2019-04-21T10:56:37.985Z,13.38
2019-04-21T10:59:04.513Z,11.50
2019-04-21T11:01:35.038Z,9.83
2019-04-21T11:04:10.024Z,11.67
2019-04-21T11:06:36.767Z,10.53
2019-04-21T11:09:10.616Z,10.72
2019-04-21T11:11:39.726Z,11.08
2019-04-21T11:14:08.678Z,11.35
2019-04-21T11:16:37.693Z,11.22
2019-04-21T11:19:06.478Z,15.25
2019-04-21T11:21:34.976Z,15.43
2019-04-21T11:24:04.002Z,10.88
2019-04-21T11:26:33.714Z,10.45
2019-04-21T11:29:03.186Z,9.95
2019-04-21T11:31:33.352Z,9.65
2019-04-21T11:34:03.025Z,11.18
2019-04-21T11:36:31.664Z,10.32
2019-04-21T11:39:16.825Z,9.60
2019-04-21T11:41:32.143Z,10.15
2019-04-21T11:44:01.432Z,9.83
2019-04-21T11:46:30.735Z,9.18
2019-04-21T11:49:00.083Z,10.15
2019-04-21T11:51:28.973Z,9.58
2019-04-21T11:53:59.209Z,9.83
2019-04-21T11:56:27.727Z,9.13
2019-04-21T11:58:57.572Z,9.23
2019-04-21T12:01:27.618Z,9.05
2019-04-21T12:03:56.209Z,9.53
2019-04-21T12:06:32.104Z,8.93
2019-04-21T12:08:58.098Z,8.38
2019-04-21T12:11:25.324Z,7.92
2019-04-21T12:13:54.272Z,9.03
2019-04-21T12:16:23.369Z,9.00
2019-04-21T12:18:52.433Z,10.35
2019-04-21T12:21:21.260Z,9.23
2019-04-21T12:23:50.308Z,9.18
2019-04-21T12:26:19.945Z,9.48
2019-04-21T12:28:50.036Z,8.58
2019-04-21T12:31:29.740Z,9.20
2019-04-21T12:34:00.306Z,10.08
2019-04-21T12:39:01.764Z,13.58
2019-04-21T12:43:57.228Z,11.22
2019-04-21T12:46:25.913Z,8.83
2019-04-21T12:48:55.772Z,8.70
2019-04-21T12:51:25.859Z,8.60
2019-04-21T12:53:54.894Z,8.63
2019-04-21T12:56:23.473Z,9.45
2019-04-21T12:58:53.295Z,8.50
2019-04-21T13:01:23.174Z,9.23
2019-04-21T13:03:52.117Z,9.55
2019-04-21T13:06:21.357Z,9.25
2019-04-21T13:08:57.744Z,9.08
2019-04-21T13:11:21.387Z,9.20
2019-04-21T13:13:50.278Z,8.73
2019-04-21T13:16:19.242Z,8.75
2019-04-21T13:18:49.139Z,9.08
2019-04-21T13:21:18.134Z,9.87
2019-04-21T13:23:47.295Z,9.68
2019-04-21T13:26:27.589Z,8.88
2019-04-21T13:28:46.376Z,9.15
2019-04-21T13:31:16.145Z,8.25
2019-04-21T13:33:46.048Z,9.43
2019-04-21T13:36:15.762Z,9.40
2019-04-21T13:39:33.163Z,8.83
2019-04-21T13:41:47.424Z,9.10
2019-04-21T13:44:17.621Z,10.82
2019-04-21T13:46:47.194Z,10.60
2019-04-21T13:49:17.253Z,8.53
2019-04-21T13:51:46.096Z,9.07
2019-04-21T13:54:15.693Z,10.72
2019-04-21T13:56:44.967Z,11.45
2019-04-21T13:59:14.093Z,8.78
2019-04-21T14:01:43.638Z,9.25
2019-04-21T14:04:13.661Z,8.93
2019-04-21T14:06:42.545Z,8.53
2019-04-21T14:09:11.895Z,8.68
2019-04-21T14:11:41.129Z,8.65
2019-04-21T14:14:10.394Z,8.43
2019-04-21T14:16:40.088Z,8.48
2019-04-21T14:19:09.705Z,9.20
2019-04-21T14:21:39.124Z,8.45
2019-04-21T14:24:08.911Z,12.80
2019-04-21T14:26:40.462Z,9.20
2019-04-21T14:29:11.389Z,8.73
2019-04-21T14:31:40.245Z,9.13
2019-04-21T14:34:10.090Z,9.98
2019-04-21T14:36:39.012Z,12.85
2019-04-21T14:39:10.538Z,9.15
2019-04-21T14:41:42.235Z,8.58
2019-04-21T14:44:13.094Z,9.35
2019-04-21T14:49:37.586Z,9.20
2019-04-21T14:52:12.840Z,9.18
2019-04-21T14:54:50.837Z,9.23
2019-04-21T14:57:23.084Z,8.68
2019-04-21T14:59:52.776Z,9.40
2019-04-21T15:02:22.293Z,8.08
2019-04-21T15:04:51.507Z,9.25
2019-04-21T15:07:21.242Z,8.58
2019-04-21T15:10:01.087Z,9.78
2019-04-21T15:12:20.224Z,8.53
2019-04-21T15:14:49.854Z,8.73
2019-04-21T15:17:20.669Z,8.25
2019-04-21T15:19:50.915Z,9.10
2019-04-21T15:22:19.082Z,9.05
2019-04-21T15:24:48.136Z,9.38
2019-04-21T15:27:17.002Z,10.78
2019-04-21T15:29:46.749Z,12.95
2019-04-21T15:32:16.896Z,12.00
2019-04-21T15:34:45.590Z,11.05
2019-04-21T15:37:14.098Z,9.50
2019-04-21T15:39:42.613Z,9.45
2019-04-21T15:42:12.535Z,9.20
2019-04-21T15:44:41.202Z,9.18
2019-04-21T15:47:10.225Z,9.95
2019-04-21T15:50:03.702Z,9.80
2019-04-21T15:52:28.028Z,9.70
2019-04-21T15:55:01.295Z,9.28
2019-04-21T15:57:31.391Z,8.95
2019-04-21T16:00:07.166Z,9.35
2019-04-21T16:02:40.415Z,9.58
2019-04-21T16:05:10.891Z,10.53
2019-04-21T16:07:40.296Z,10.75
2019-04-21T16:10:11.922Z,9.95
2019-04-21T16:12:40.455Z,9.73
2019-04-21T16:15:10.404Z,8.95
2019-04-21T16:17:39.491Z,9.40
2019-04-21T16:20:10.389Z,8.93
2019-04-21T16:22:38.989Z,10.07
2019-04-21T16:25:08.913Z,10.43
2019-04-21T16:27:37.693Z,11.28
2019-04-21T16:30:10.046Z,10.70
2019-04-21T16:32:38.724Z,11.95
2019-04-21T16:35:10.710Z,11.18
2019-04-21T16:37:39.425Z,10.72
2019-04-21T16:40:09.468Z,9.50
2019-04-21T16:42:38.432Z,10.23
2019-04-21T16:45:08.630Z,10.10
2019-04-21T16:47:38.010Z,10.10
2019-04-21T16:50:09.836Z,9.83
2019-04-21T16:52:43.625Z,10.28
2019-04-21T16:55:17.110Z,10.72
2019-04-21T16:58:04.450Z,11.53
2019-04-21T17:00:38.767Z,10.00
2019-04-21T17:02:59.094Z,9.98
2019-04-21T17:05:27.925Z,10.68
2019-04-21T17:07:57.769Z,10.50
2019-04-21T17:10:26.703Z,9.63
2019-04-21T17:12:56.064Z,11.10
2019-04-21T17:15:46.136Z,10.28
2019-04-21T17:18:13.418Z,9.93
2019-04-21T17:20:38.186Z,9.43
2019-04-21T17:22:55.684Z,8.75
2019-04-21T17:25:26.586Z,9.33
2019-04-21T17:27:56.776Z,8.55
2019-04-21T17:30:26.452Z,8.97
2019-04-21T17:32:55.489Z,9.03
2019-04-21T17:35:24.803Z,9.13
2019-04-21T17:37:54.290Z,9.10
2019-04-21T17:40:24.523Z,9.68
2019-04-21T17:43:01.343Z,10.45
2019-04-21T17:45:24.206Z,9.40
2019-04-21T17:47:59.761Z,8.75
2019-04-21T17:50:25.400Z,8.53
2019-04-21T17:53:05.011Z,9.75
2019-04-21T17:55:37.355Z,8.55
2019-04-21T17:58:25.029Z,8.75
2019-04-21T18:03:39.004Z,9.30
2019-04-21T18:05:56.018Z,8.48
2019-04-21T18:08:38.959Z,9.23
2019-04-21T18:10:54.378Z,9.08
2019-04-21T18:13:19.540Z,9.53
2019-04-21T18:15:55.748Z,9.75
2019-04-21T18:18:34.963Z,8.75
2019-04-21T18:20:58.853Z,8.50
2019-04-21T18:23:46.052Z,9.10
2019-04-21T18:26:08.225Z,9.03
2019-04-21T18:28:32.927Z,8.68
2019-04-21T18:31:04.562Z,9.30
2019-04-21T18:36:06.609Z,9.63
2019-04-21T18:39:09.775Z,8.28
2019-04-21T18:42:02.530Z,8.70
2019-04-21T18:44:53.395Z,8.75
2019-04-21T18:47:32.023Z,9.15
2019-04-21T18:49:45.935Z,8.83
2019-04-21T18:55:09.447Z,9.08
2019-04-21T18:57:35.294Z,10.28
2019-04-21T18:59:55.599Z,9.10
2019-04-21T19:02:26.172Z,9.85
2019-04-21T19:05:05.813Z,9.23
2019-04-21T19:07:48.015Z,9.55
2019-04-21T19:10:22.263Z,9.23
2019-04-21T19:13:16.020Z,8.83
2019-04-21T19:15:13.428Z,9.50
2019-04-21T19:20:22.295Z,10.45
2019-04-21T19:22:45.361Z,9.78
2019-04-21T19:25:15.391Z,10.95
2019-04-21T19:27:50.265Z,10.90
2019-04-21T19:30:22.211Z,9.73
2019-04-21T19:32:45.301Z,10.58
2019-04-21T19:35:03.365Z,9.67
2019-04-21T19:37:42.303Z,11.15
2019-04-21T19:40:16.344Z,10.60
2019-04-21T19:42:42.613Z,9.85
2019-04-21T19:47:56.545Z,10.38
2019-04-21T19:50:28.561Z,10.95
2019-04-21T19:52:52.218Z,11.95
2019-04-21T19:55:12.053Z,12.07
2019-04-21T19:57:41.089Z,11.83
2019-04-21T20:00:12.100Z,19.17
2019-04-21T20:02:40.868Z,11.60
2019-04-21T20:05:16.432Z,12.28
2019-04-21T20:07:58.389Z,15.65
2019-04-21T20:10:48.510Z,31.85
2019-04-21T20:13:02.924Z,11.70
2019-04-21T20:15:37.386Z,12.85
2019-04-21T20:17:54.010Z,12.53
2019-04-21T20:20:13.322Z,12.03
2019-04-21T20:22:46.815Z,12.25
2019-04-21T20:25:17.222Z,12.73
2019-04-21T20:27:52.828Z,12.23
2019-04-21T20:30:33.019Z,12.50
2019-04-21T20:33:14.211Z,12.05
2019-04-21T20:35:38.398Z,13.55
2019-04-21T20:38:04.711Z,14.23
2019-04-21T20:40:25.364Z,13.95
2019-04-21T20:43:08.730Z,13.18
2019-04-21T20:45:40.191Z,14.03
2019-04-21T20:50:33.643Z,13.43
2019-04-21T20:53:07.236Z,16.97
2019-04-21T20:55:29.853Z,15.53
2019-04-21T20:58:01.459Z,22.27
2019-04-21T21:00:45.646Z,17.37
2019-04-21T21:03:14.520Z,17.03
2019-04-21T21:05:37.017Z,62.73
2019-04-21T21:08:16.928Z,19.23
2019-04-21T21:10:41.287Z,18.70
2019-04-21T21:13:26.412Z,17.45
2019-04-21T21:15:51.317Z,15.72
2019-04-21T21:18:26.535Z,15.85
2019-04-21T21:20:49.770Z,16.93
2019-04-21T21:23:10.523Z,15.43
2019-04-21T21:25:50.445Z,16.87
2019-04-21T21:28:10.170Z,16.35
2019-04-21T21:30:43.157Z,17.45
2019-04-21T21:33:21.694Z,17.55
2019-04-21T21:35:43.776Z,16.32
2019-04-21T21:38:24.005Z,17.60
2019-04-21T21:40:45.566Z,20.30
2019-04-21T21:43:08.173Z,20.37
2019-04-21T21:45:40.050Z,17.87
2019-04-21T21:48:24.727Z,19.02
2019-04-21T21:50:45.700Z,19.25
2019-04-21T21:53:11.543Z,17.77
2019-04-21T21:55:35.879Z,19.30
2019-04-21T21:58:06.394Z,20.52
2019-04-21T22:00:36.960Z,20.05
2019-04-21T22:03:14.863Z,21.48
2019-04-21T22:05:48.163Z,19.80
2019-04-21T22:08:07.395Z,20.25
2019-04-21T22:10:36.963Z,19.32
2019-04-21T22:13:12.431Z,20.40
2019-04-21T22:15:41.556Z,19.42
2019-04-21T22:18:33.356Z,19.45
2019-04-21T22:20:59.310Z,17.02
2019-04-21T22:23:26.282Z,18.23
2019-04-21T22:25:45.805Z,16.75
2019-04-21T22:28:15.740Z,16.77
2019-04-21T22:30:49.724Z,17.92
2019-04-21T22:33:19.528Z,27.58
2019-04-21T22:35:54.224Z,27.10
2019-04-21T22:38:37.331Z,21.77
2019-04-21T22:41:00.176Z,19.62
2019-04-21T22:43:26.801Z,19.07
2019-04-21T22:45:49.509Z,20.57
2019-04-21T22:48:22.693Z,20.20
2019-04-21T22:50:49.094Z,18.65
2019-04-21T22:53:19.313Z,18.73
2019-04-21T22:55:49.627Z,17.42
2019-04-21T22:58:25.747Z,19.70
2019-04-21T23:00:55.941Z,19.37
2019-04-21T23:03:24.857Z,18.77
2019-04-21T23:05:53.662Z,17.65
2019-04-21T23:08:27.944Z,17.98
2019-04-21T23:10:59.823Z,18.23
2019-04-21T23:13:25.366Z,18.62
2019-04-21T23:15:57.344Z,18.00
2019-04-21T23:18:40.119Z,18.15
2019-04-21T23:21:10.417Z,18.05
2019-04-21T23:23:44.169Z,17.77
2019-04-21T23:26:20.918Z,17.77
2019-04-21T23:28:46.681Z,18.10
2019-04-21T23:31:21.452Z,18.00
2019-04-21T23:33:28.992Z,18.17
2019-04-21T23:36:03.963Z,19.15
2019-04-21T23:38:34.922Z,18.92
2019-04-21T23:41:01.705Z,19.67
2019-04-21T23:43:30.971Z,18.98
2019-04-21T23:46:04.268Z,19.07
2019-04-21T23:48:39.243Z,18.92
2019-04-21T23:51:13.558Z,19.35
2019-04-21T23:53:29.327Z,18.67
2019-04-21T23:55:59.157Z,18.50
2019-04-21T23:58:31.215Z,18.77
